FDX358 KMEM-KMCO
Flight info
| Callsign | FDX358 |
|---|---|
| Flight time | 1h 28m |
| Altitude | 37000 |
| Route | BBKNG7 KERMI VLKNN Q116 DEEDA GRNCH5 |
| Aircraft | MD11/H-SDE1E2E3FGHIJ2J3J4J5M1RWXY/LB1D1 |
Departure
| Time | 2026-04-21 16:21 |
|---|---|
| Airport | Memphis International Airport (KMEM) |
Arrival
| Time | 2026-04-21 17:50 |
|---|---|
| Airport | Orlando International Airport (KMCO) |
| Time | Latitude | Longitude | Altitude | Speed | Heading |
|---|---|---|---|---|---|
| 2026-04-21 15:50 | 35.06107 | -89.98182 | 338 ft | 0 kts | 91° |
| 2026-04-21 16:06 | 35.06107 | -89.98183 | 338 ft | 2 kts | 91° |
| 2026-04-21 16:07 | 35.06110 | -89.98212 | 340 ft | 4 kts | 109° |
| 2026-04-21 16:07 | 35.06121 | -89.98239 | 331 ft | 4 kts | 139° |
| 2026-04-21 16:07 | 35.06141 | -89.98254 | 332 ft | 4 kts | 168° |
| 2026-04-21 16:07 | 35.06167 | -89.98258 | 333 ft | 3 kts | 182° |
| 2026-04-21 16:08 | 35.06171 | -89.98258 | 338 ft | 0 kts | 182° |
| 2026-04-21 16:14 | 35.06146 | -89.98259 | 334 ft | 10 kts | 182° |
| 2026-04-21 16:14 | 35.06068 | -89.98262 | 336 ft | 10 kts | 181° |
| 2026-04-21 16:15 | 35.06022 | -89.98236 | 334 ft | 8 kts | 127° |
| 2026-04-21 16:15 | 35.06015 | -89.98165 | 336 ft | 9 kts | 88° |
| 2026-04-21 16:15 | 35.06015 | -89.98082 | 338 ft | 8 kts | 91° |
| 2026-04-21 16:15 | 35.06013 | -89.98027 | 337 ft | 6 kts | 95° |
| 2026-04-21 16:16 | 35.06009 | -89.97939 | 334 ft | 16 kts | 92° |
| 2026-04-21 16:16 | 35.06006 | -89.97841 | 338 ft | 8 kts | 94° |
| 2026-04-21 16:16 | 35.05971 | -89.97786 | 337 ft | 7 kts | 162° |
| 2026-04-21 16:16 | 35.05914 | -89.97784 | 336 ft | 10 kts | 181° |
| 2026-04-21 16:17 | 35.05859 | -89.97785 | 337 ft | 6 kts | 180° |
| 2026-04-21 16:17 | 35.05804 | -89.97785 | 337 ft | 11 kts | 179° |
| 2026-04-21 16:17 | 35.05717 | -89.97784 | 334 ft | 12 kts | 180° |
| 2026-04-21 16:17 | 35.05638 | -89.97785 | 335 ft | 12 kts | 180° |
| 2026-04-21 16:18 | 35.05548 | -89.97785 | 335 ft | 11 kts | 180° |
| 2026-04-21 16:18 | 35.05481 | -89.97784 | 334 ft | 8 kts | 176° |
| 2026-04-21 16:18 | 35.05445 | -89.97752 | 334 ft | 3 kts | 122° |
| 2026-04-21 16:18 | 35.05445 | -89.97751 | 334 ft | 0 kts | 121° |
| 2026-04-21 16:19 | 35.05444 | -89.97747 | 333 ft | 2 kts | 113° |
| 2026-04-21 16:19 | 35.05443 | -89.97702 | 331 ft | 8 kts | 90° |
| 2026-04-21 16:19 | 35.05437 | -89.97643 | 331 ft | 4 kts | 114° |
| 2026-04-21 16:19 | 35.05409 | -89.97620 | 331 ft | 7 kts | 160° |
| 2026-04-21 16:20 | 35.05379 | -89.97617 | 330 ft | 0 kts | 178° |
| 2026-04-21 16:21 | 35.05347 | -89.97616 | 330 ft | 23 kts | 179° |
| 2026-04-21 16:21 | 35.04846 | -89.97606 | 327 ft | 118 kts | 179° |
| 2026-04-21 16:21 | 35.03782 | -89.97579 | 482 ft | 175 kts | 183° |
| 2026-04-21 16:21 | 35.02539 | -89.97605 | 1490 ft | 177 kts | 184° |
| 2026-04-21 16:22 | 35.01335 | -89.97625 | 2843 ft | 168 kts | 183° |
| 2026-04-21 16:22 | 35.00214 | -89.97376 | 4090 ft | 172 kts | 168° |
| 2026-04-21 16:22 | 34.98935 | -89.96883 | 4568 ft | 211 kts | 167° |
| 2026-04-21 16:22 | 34.97397 | -89.96326 | 4894 ft | 248 kts | 168° |
| 2026-04-21 16:23 | 34.95739 | -89.95635 | 4960 ft | 258 kts | 159° |
| 2026-04-21 16:23 | 34.94230 | -89.94429 | 4956 ft | 264 kts | 140° |
| 2026-04-21 16:23 | 34.93223 | -89.92534 | 5834 ft | 271 kts | 114° |
| 2026-04-21 16:23 | 34.92791 | -89.90245 | 6961 ft | 284 kts | 99° |
| 2026-04-21 16:24 | 34.92630 | -89.87823 | 8046 ft | 289 kts | 95° |
| 2026-04-21 16:24 | 34.92533 | -89.85364 | 9164 ft | 292 kts | 95° |
| 2026-04-21 16:24 | 34.92441 | -89.82874 | 10218 ft | 299 kts | 95° |
| 2026-04-21 16:24 | 34.92332 | -89.80194 | 10423 ft | 335 kts | 95° |
| 2026-04-21 16:25 | 34.92200 | -89.77211 | 10665 ft | 366 kts | 95° |
| 2026-04-21 16:25 | 34.92061 | -89.74096 | 11631 ft | 372 kts | 95° |
| 2026-04-21 16:25 | 34.91915 | -89.70923 | 12575 ft | 379 kts | 95° |
| 2026-04-21 16:25 | 34.91764 | -89.67695 | 13515 ft | 384 kts | 95° |
| 2026-04-21 16:26 | 34.91630 | -89.64419 | 14382 ft | 390 kts | 93° |
| 2026-04-21 16:26 | 34.91575 | -89.61093 | 15174 ft | 395 kts | 92° |
| 2026-04-21 16:26 | 34.91564 | -89.57722 | 15963 ft | 400 kts | 91° |
| 2026-04-21 16:26 | 34.91567 | -89.54315 | 16733 ft | 405 kts | 91° |
| 2026-04-21 16:27 | 34.91573 | -89.50867 | 17487 ft | 410 kts | 91° |
| 2026-04-21 16:27 | 34.91576 | -89.47377 | 18235 ft | 414 kts | 91° |
| 2026-04-21 16:27 | 34.91576 | -89.43850 | 18912 ft | 419 kts | 91° |
| 2026-04-21 16:27 | 34.91573 | -89.40332 | 19503 ft | 423 kts | 91° |
| 2026-04-21 16:28 | 34.91567 | -89.36727 | 20092 ft | 428 kts | 91° |
| 2026-04-21 16:28 | 34.91559 | -89.33077 | 20655 ft | 433 kts | 91° |
| 2026-04-21 16:28 | 34.91550 | -89.29385 | 21222 ft | 438 kts | 91° |
| 2026-04-21 16:28 | 34.91539 | -89.25656 | 21798 ft | 443 kts | 91° |
| 2026-04-21 16:29 | 34.91516 | -89.23114 | 22162 ft | 446 kts | 93° |
| 2026-04-21 16:29 | 34.91049 | -89.18111 | 22748 ft | 451 kts | 101° |
| 2026-04-21 16:29 | 34.90436 | -89.14346 | 23156 ft | 454 kts | 103° |
| 2026-04-21 16:29 | 34.89753 | -89.10574 | 23564 ft | 458 kts | 104° |
| 2026-04-21 16:30 | 34.89057 | -89.06772 | 23768 ft | 462 kts | 103° |
| 2026-04-21 16:30 | 34.88371 | -89.02950 | 23808 ft | 463 kts | 103° |
| 2026-04-21 16:30 | 34.87700 | -88.99113 | 23817 ft | 463 kts | 103° |
| 2026-04-21 16:30 | 34.87041 | -88.95270 | 23821 ft | 463 kts | 103° |
| 2026-04-21 16:31 | 34.86388 | -88.91431 | 23824 ft | 463 kts | 103° |
| 2026-04-21 16:31 | 34.85737 | -88.87590 | 23825 ft | 463 kts | 103° |
| 2026-04-21 16:31 | 34.85086 | -88.83748 | 23827 ft | 463 kts | 102° |
| 2026-04-21 16:31 | 34.84431 | -88.79896 | 24208 ft | 465 kts | 102° |
| 2026-04-21 16:32 | 34.83771 | -88.76023 | 24753 ft | 470 kts | 102° |
| 2026-04-21 16:32 | 34.83102 | -88.72108 | 25263 ft | 475 kts | 102° |
| 2026-04-21 16:32 | 34.82423 | -88.68145 | 25782 ft | 481 kts | 102° |
| 2026-04-21 16:32 | 34.81736 | -88.64143 | 26308 ft | 486 kts | 102° |
| 2026-04-21 16:33 | 34.81039 | -88.60090 | 26818 ft | 492 kts | 102° |
| 2026-04-21 16:33 | 34.80334 | -88.56002 | 27326 ft | 497 kts | 102° |
| 2026-04-21 16:33 | 34.79619 | -88.51863 | 27827 ft | 502 kts | 102° |
| 2026-04-21 16:33 | 34.78896 | -88.47687 | 28307 ft | 508 kts | 102° |
| 2026-04-21 16:34 | 34.78163 | -88.43464 | 28851 ft | 512 kts | 102° |
| 2026-04-21 16:34 | 34.77423 | -88.39207 | 29338 ft | 517 kts | 102° |
| 2026-04-21 16:34 | 34.76674 | -88.34907 | 29815 ft | 522 kts | 101° |
| 2026-04-21 16:34 | 34.75917 | -88.30570 | 30286 ft | 527 kts | 101° |
| 2026-04-21 16:35 | 34.75150 | -88.26190 | 30672 ft | 532 kts | 101° |
| 2026-04-21 16:35 | 34.74336 | -88.21790 | 31026 ft | 536 kts | 104° |
| 2026-04-21 16:35 | 34.73174 | -88.17470 | 31351 ft | 540 kts | 114° |
| 2026-04-21 16:35 | 34.71475 | -88.13402 | 31733 ft | 540 kts | 123° |
| 2026-04-21 16:36 | 34.69318 | -88.09752 | 32147 ft | 538 kts | 133° |
| 2026-04-21 16:36 | 34.67601 | -88.07512 | 32439 ft | 536 kts | 139° |
| 2026-04-21 16:36 | 34.63888 | -88.03574 | 32944 ft | 535 kts | 144° |
| 2026-04-21 16:36 | 34.61949 | -88.01625 | 33226 ft | 536 kts | 144° |
| 2026-04-21 16:37 | 34.58210 | -87.97704 | 33772 ft | 538 kts | 142° |
| 2026-04-21 16:37 | 34.55458 | -87.94614 | 34179 ft | 539 kts | 140° |
| 2026-04-21 16:37 | 34.53633 | -87.92481 | 34423 ft | 540 kts | 140° |
| 2026-04-21 16:37 | 34.50101 | -87.88237 | 34927 ft | 539 kts | 139° |
| 2026-04-21 16:38 | 34.48314 | -87.86061 | 35202 ft | 538 kts | 139° |
| 2026-04-21 16:38 | 34.45680 | -87.82850 | 35613 ft | 536 kts | 139° |
| 2026-04-21 16:38 | 34.43060 | -87.79664 | 36035 ft | 533 kts | 139° |
| 2026-04-21 16:38 | 34.40448 | -87.76503 | 36408 ft | 529 kts | 139° |
| 2026-04-21 16:39 | 34.37878 | -87.73405 | 36793 ft | 527 kts | 139° |
| 2026-04-21 16:39 | 34.35246 | -87.70241 | 37171 ft | 526 kts | 139° |
| 2026-04-21 16:39 | 34.32642 | -87.67120 | 37298 ft | 527 kts | 139° |
| 2026-04-21 16:40 | 34.27421 | -87.60869 | 37335 ft | 528 kts | 139° |
| 2026-04-21 16:40 | 34.22198 | -87.54622 | 37334 ft | 528 kts | 139° |
| 2026-04-21 16:41 | 34.17006 | -87.48422 | 37328 ft | 528 kts | 139° |
| 2026-04-21 16:41 | 34.11789 | -87.42206 | 37355 ft | 527 kts | 139° |
| 2026-04-21 16:42 | 34.06559 | -87.36016 | 37364 ft | 527 kts | 139° |
| 2026-04-21 16:42 | 34.01326 | -87.29826 | 37374 ft | 528 kts | 139° |
| 2026-04-21 16:43 | 33.96078 | -87.23610 | 37378 ft | 529 kts | 139° |
| 2026-04-21 16:43 | 33.90825 | -87.17393 | 37327 ft | 529 kts | 139° |
| 2026-04-21 16:44 | 33.85575 | -87.11192 | 37344 ft | 528 kts | 139° |
| 2026-04-21 16:44 | 33.80325 | -87.05004 | 37340 ft | 528 kts | 139° |
| 2026-04-21 16:45 | 33.75073 | -86.98825 | 37343 ft | 528 kts | 139° |
| 2026-04-21 16:45 | 33.69561 | -86.93045 | 37387 ft | 525 kts | 146° |
| 2026-04-21 16:46 | 33.63766 | -86.87676 | 37374 ft | 527 kts | 147° |
| 2026-04-21 16:46 | 33.57951 | -86.82337 | 37395 ft | 526 kts | 146° |
| 2026-04-21 16:47 | 33.52169 | -86.76963 | 37395 ft | 526 kts | 146° |
| 2026-04-21 16:47 | 33.46393 | -86.71570 | 37391 ft | 526 kts | 146° |
| 2026-04-21 16:48 | 33.40618 | -86.66183 | 37379 ft | 526 kts | 146° |
| 2026-04-21 16:48 | 33.34840 | -86.60808 | 37363 ft | 526 kts | 146° |
| 2026-04-21 16:49 | 33.29059 | -86.55440 | 37365 ft | 526 kts | 146° |
| 2026-04-21 16:49 | 33.23251 | -86.50059 | 37382 ft | 529 kts | 146° |
| 2026-04-21 16:50 | 33.17432 | -86.44675 | 37390 ft | 529 kts | 146° |
| 2026-04-21 16:50 | 33.11649 | -86.39333 | 37394 ft | 529 kts | 146° |
| 2026-04-21 16:51 | 33.05786 | -86.33936 | 37386 ft | 529 kts | 146° |
| 2026-04-21 16:51 | 32.99957 | -86.28595 | 37344 ft | 528 kts | 146° |
| 2026-04-21 16:52 | 32.94170 | -86.23288 | 37358 ft | 529 kts | 146° |
| 2026-04-21 16:52 | 32.88351 | -86.17950 | 37364 ft | 528 kts | 147° |
| 2026-04-21 16:53 | 32.82544 | -86.12630 | 37350 ft | 526 kts | 147° |
| 2026-04-21 16:53 | 32.76737 | -86.07321 | 37364 ft | 527 kts | 147° |
| 2026-04-21 16:54 | 32.70928 | -86.02020 | 37361 ft | 527 kts | 147° |
| 2026-04-21 16:54 | 32.65118 | -85.96727 | 37349 ft | 527 kts | 147° |
| 2026-04-21 16:55 | 32.59303 | -85.91438 | 37341 ft | 526 kts | 147° |
| 2026-04-21 16:55 | 32.53486 | -85.86156 | 37325 ft | 526 kts | 147° |
| 2026-04-21 16:56 | 32.47676 | -85.80889 | 37335 ft | 526 kts | 147° |
| 2026-04-21 16:56 | 32.41860 | -85.75627 | 37347 ft | 526 kts | 147° |
| 2026-04-21 16:57 | 32.36038 | -85.70391 | 37343 ft | 526 kts | 147° |
| 2026-04-21 16:57 | 32.30217 | -85.65155 | 37347 ft | 526 kts | 147° |
| 2026-04-21 16:58 | 32.24400 | -85.59919 | 37336 ft | 526 kts | 147° |
| 2026-04-21 16:58 | 32.18589 | -85.54694 | 37350 ft | 525 kts | 147° |
| 2026-04-21 16:59 | 32.12770 | -85.49471 | 37350 ft | 525 kts | 147° |
| 2026-04-21 16:59 | 32.06956 | -85.44261 | 37346 ft | 525 kts | 147° |
| 2026-04-21 17:00 | 32.01136 | -85.39056 | 37359 ft | 527 kts | 147° |
| 2026-04-21 17:00 | 31.96278 | -85.34718 | 37349 ft | 527 kts | 147° |
| 2026-04-21 17:01 | 31.89454 | -85.28631 | 37381 ft | 526 kts | 147° |
| 2026-04-21 17:01 | 31.83621 | -85.23439 | 37379 ft | 525 kts | 147° |
| 2026-04-21 17:02 | 31.77794 | -85.18260 | 37375 ft | 525 kts | 147° |
| 2026-04-21 17:02 | 31.71963 | -85.13101 | 37370 ft | 524 kts | 147° |
| 2026-04-21 17:03 | 31.66134 | -85.07957 | 37364 ft | 524 kts | 147° |
| 2026-04-21 17:03 | 31.60324 | -85.02792 | 37362 ft | 525 kts | 145° |
| 2026-04-21 17:04 | 31.55256 | -84.96552 | 37366 ft | 534 kts | 127° |
| 2026-04-21 17:04 | 31.51979 | -84.88744 | 37367 ft | 537 kts | 107° |
| 2026-04-21 17:05 | 31.50132 | -84.80332 | 37366 ft | 537 kts | 104° |
| 2026-04-21 17:05 | 31.48080 | -84.71932 | 37365 ft | 536 kts | 108° |
| 2026-04-21 17:06 | 31.45645 | -84.63675 | 37363 ft | 536 kts | 110° |
| 2026-04-21 17:06 | 31.43087 | -84.55462 | 37358 ft | 537 kts | 110° |
| 2026-04-21 17:07 | 31.40947 | -84.48583 | 37355 ft | 537 kts | 110° |
| 2026-04-21 17:07 | 31.37995 | -84.39035 | 37343 ft | 537 kts | 110° |
| 2026-04-21 17:08 | 31.35456 | -84.30820 | 37349 ft | 537 kts | 110° |
| 2026-04-21 17:08 | 31.32908 | -84.22596 | 37350 ft | 538 kts | 110° |
| 2026-04-21 17:09 | 31.29067 | -84.10251 | 37349 ft | 539 kts | 110° |
| 2026-04-21 17:09 | 31.26479 | -84.02034 | 37351 ft | 538 kts | 110° |
| 2026-04-21 17:10 | 31.23896 | -83.93822 | 37351 ft | 538 kts | 110° |
| 2026-04-21 17:10 | 31.21315 | -83.85602 | 37351 ft | 539 kts | 110° |
| 2026-04-21 17:11 | 31.18728 | -83.77371 | 37349 ft | 540 kts | 110° |
| 2026-04-21 17:11 | 31.16137 | -83.69149 | 37349 ft | 540 kts | 110° |
| 2026-04-21 17:12 | 31.13539 | -83.60930 | 37349 ft | 540 kts | 110° |
| 2026-04-21 17:12 | 31.10935 | -83.52713 | 37367 ft | 540 kts | 110° |
| 2026-04-21 17:13 | 31.08323 | -83.44495 | 37339 ft | 540 kts | 110° |
| 2026-04-21 17:13 | 31.05707 | -83.36278 | 37338 ft | 540 kts | 110° |
| 2026-04-21 17:14 | 31.03084 | -83.28066 | 37340 ft | 540 kts | 110° |
| 2026-04-21 17:14 | 31.00457 | -83.19861 | 37340 ft | 540 kts | 110° |
| 2026-04-21 17:15 | 30.97803 | -83.11666 | 37341 ft | 541 kts | 110° |
| 2026-04-21 17:15 | 30.95149 | -83.03471 | 37332 ft | 541 kts | 110° |
| 2026-04-21 17:16 | 30.92501 | -82.95272 | 37323 ft | 541 kts | 110° |
| 2026-04-21 17:16 | 30.89503 | -82.87261 | 37320 ft | 539 kts | 122° |
| 2026-04-21 17:17 | 30.84773 | -82.80595 | 37333 ft | 533 kts | 143° |
| 2026-04-21 17:17 | 30.78775 | -82.75623 | 37335 ft | 529 kts | 151° |
| 2026-04-21 17:18 | 30.72691 | -82.70800 | 37337 ft | 531 kts | 148° |
| 2026-04-21 17:18 | 30.66782 | -82.65626 | 37335 ft | 532 kts | 146° |
| 2026-04-21 17:19 | 30.60961 | -82.60310 | 37336 ft | 533 kts | 145° |
| 2026-04-21 17:19 | 30.55142 | -82.54991 | 37330 ft | 533 kts | 146° |
| 2026-04-21 17:20 | 30.49307 | -82.49693 | 37330 ft | 532 kts | 146° |
| 2026-04-21 17:20 | 30.43473 | -82.44416 | 37330 ft | 532 kts | 146° |
| 2026-04-21 17:21 | 30.38619 | -82.40033 | 37335 ft | 532 kts | 146° |
| 2026-04-21 17:21 | 30.32781 | -82.34768 | 37329 ft | 531 kts | 146° |
| 2026-04-21 17:22 | 30.26957 | -82.29521 | 37332 ft | 531 kts | 146° |
| 2026-04-21 17:22 | 30.20993 | -82.24543 | 37334 ft | 525 kts | 155° |
| 2026-04-21 17:23 | 30.17713 | -82.22771 | 37331 ft | 517 kts | 166° |
| 2026-04-21 17:23 | 30.14282 | -82.21668 | 37300 ft | 509 kts | 175° |
| 2026-04-21 17:23 | 30.10785 | -82.21067 | 37004 ft | 506 kts | 180° |
| 2026-04-21 17:23 | 30.07283 | -82.20647 | 36541 ft | 507 kts | 181° |
| 2026-04-21 17:24 | 30.03756 | -82.20208 | 35950 ft | 511 kts | 179° |
| 2026-04-21 17:24 | 30.00217 | -82.19681 | 35348 ft | 515 kts | 178° |
| 2026-04-21 17:24 | 29.96658 | -82.19065 | 34750 ft | 520 kts | 176° |
| 2026-04-21 17:24 | 29.93074 | -82.18386 | 34125 ft | 524 kts | 175° |
| 2026-04-21 17:25 | 29.89477 | -82.17669 | 33447 ft | 526 kts | 174° |
| 2026-04-21 17:25 | 29.85873 | -82.16937 | 32772 ft | 526 kts | 174° |
| 2026-04-21 17:25 | 29.82268 | -82.16204 | 32133 ft | 526 kts | 174° |
| 2026-04-21 17:25 | 29.78684 | -82.15478 | 31509 ft | 520 kts | 174° |
| 2026-04-21 17:26 | 29.75142 | -82.14764 | 30859 ft | 513 kts | 174° |
| 2026-04-21 17:26 | 29.71658 | -82.14066 | 30161 ft | 505 kts | 174° |
| 2026-04-21 17:26 | 29.68224 | -82.13380 | 29442 ft | 496 kts | 174° |
| 2026-04-21 17:26 | 29.64847 | -82.12709 | 28786 ft | 490 kts | 174° |
| 2026-04-21 17:27 | 29.61509 | -82.12047 | 28142 ft | 485 kts | 174° |
| 2026-04-21 17:27 | 29.58200 | -82.11391 | 27495 ft | 479 kts | 174° |
| 2026-04-21 17:27 | 29.54924 | -82.10743 | 26917 ft | 476 kts | 174° |
| 2026-04-21 17:27 | 29.51676 | -82.10100 | 26523 ft | 472 kts | 174° |
| 2026-04-21 17:28 | 29.48489 | -82.09469 | 26318 ft | 469 kts | 174° |
| 2026-04-21 17:28 | 29.45235 | -82.08825 | 26236 ft | 469 kts | 174° |
| 2026-04-21 17:28 | 29.42024 | -82.08190 | 26129 ft | 468 kts | 174° |
| 2026-04-21 17:28 | 29.38858 | -82.07564 | 25773 ft | 468 kts | 174° |
| 2026-04-21 17:29 | 29.35676 | -82.06932 | 25410 ft | 462 kts | 174° |
| 2026-04-21 17:29 | 29.32478 | -82.06289 | 25040 ft | 455 kts | 172° |
| 2026-04-21 17:29 | 29.29457 | -82.05283 | 24408 ft | 452 kts | 161° |
| 2026-04-21 17:29 | 29.26662 | -82.03793 | 23689 ft | 448 kts | 155° |
| 2026-04-21 17:30 | 29.23959 | -82.02063 | 22909 ft | 442 kts | 152° |
| 2026-04-21 17:30 | 29.21328 | -82.00287 | 22196 ft | 436 kts | 152° |
| 2026-04-21 17:30 | 29.18734 | -81.98538 | 21523 ft | 430 kts | 152° |
| 2026-04-21 17:30 | 29.16166 | -81.96837 | 20858 ft | 422 kts | 152° |
| 2026-04-21 17:31 | 29.13638 | -81.95193 | 20216 ft | 415 kts | 152° |
| 2026-04-21 17:31 | 29.11143 | -81.93591 | 19580 ft | 408 kts | 153° |
| 2026-04-21 17:31 | 29.08682 | -81.92024 | 18955 ft | 401 kts | 153° |
| 2026-04-21 17:31 | 29.06356 | -81.90322 | 18300 ft | 396 kts | 144° |
| 2026-04-21 17:32 | 29.04258 | -81.88318 | 17616 ft | 390 kts | 139° |
| 2026-04-21 17:32 | 29.02285 | -81.86209 | 16776 ft | 383 kts | 136° |
| 2026-04-21 17:32 | 29.00380 | -81.84094 | 16256 ft | 380 kts | 136° |
| 2026-04-21 17:32 | 28.98520 | -81.81997 | 15969 ft | 373 kts | 133° |
| 2026-04-21 17:33 | 28.96820 | -81.79763 | 15888 ft | 372 kts | 128° |
| 2026-04-21 17:33 | 28.95228 | -81.77440 | 15826 ft | 371 kts | 127° |
| 2026-04-21 17:33 | 28.93669 | -81.75087 | 15763 ft | 371 kts | 126° |
| 2026-04-21 17:33 | 28.92123 | -81.72740 | 15700 ft | 370 kts | 126° |
| 2026-04-21 17:34 | 28.90571 | -81.70394 | 15638 ft | 371 kts | 126° |
| 2026-04-21 17:34 | 28.89005 | -81.68040 | 15585 ft | 373 kts | 127° |
| 2026-04-21 17:34 | 28.87431 | -81.65684 | 15214 ft | 373 kts | 127° |
| 2026-04-21 17:34 | 28.85867 | -81.63354 | 14711 ft | 367 kts | 126° |
| 2026-04-21 17:35 | 28.84327 | -81.61064 | 14343 ft | 359 kts | 126° |
| 2026-04-21 17:35 | 28.82834 | -81.58845 | 14170 ft | 345 kts | 126° |
| 2026-04-21 17:35 | 28.81408 | -81.56727 | 14050 ft | 329 kts | 126° |
| 2026-04-21 17:35 | 28.79940 | -81.54782 | 13929 ft | 321 kts | 139° |
| 2026-04-21 17:36 | 28.78132 | -81.53320 | 13881 ft | 320 kts | 149° |
| 2026-04-21 17:36 | 28.76182 | -81.52073 | 13821 ft | 321 kts | 152° |
| 2026-04-21 17:36 | 28.74216 | -81.50896 | 13746 ft | 319 kts | 152° |
| 2026-04-21 17:36 | 28.72244 | -81.49728 | 13687 ft | 319 kts | 152° |
| 2026-04-21 17:37 | 28.70268 | -81.48554 | 13292 ft | 319 kts | 152° |
| 2026-04-21 17:37 | 28.68311 | -81.47384 | 12730 ft | 317 kts | 152° |
| 2026-04-21 17:37 | 28.66366 | -81.46216 | 12186 ft | 315 kts | 152° |
| 2026-04-21 17:37 | 28.64449 | -81.45061 | 11628 ft | 309 kts | 151° |
| 2026-04-21 17:38 | 28.62552 | -81.43917 | 11150 ft | 305 kts | 151° |
| 2026-04-21 17:38 | 28.60630 | -81.42979 | 10869 ft | 299 kts | 165° |
| 2026-04-21 17:38 | 28.58581 | -81.42550 | 10713 ft | 297 kts | 173° |
| 2026-04-21 17:38 | 28.56540 | -81.42380 | 10307 ft | 295 kts | 178° |
| 2026-04-21 17:39 | 28.54486 | -81.42356 | 9684 ft | 292 kts | 179° |
| 2026-04-21 17:39 | 28.52492 | -81.42369 | 9113 ft | 282 kts | 179° |
| 2026-04-21 17:39 | 28.50588 | -81.42385 | 8611 ft | 267 kts | 178° |
| 2026-04-21 17:39 | 28.48761 | -81.42398 | 8106 ft | 260 kts | 176° |
| 2026-04-21 17:40 | 28.46964 | -81.42405 | 7662 ft | 253 kts | 176° |
| 2026-04-21 17:40 | 28.45246 | -81.42411 | 7240 ft | 243 kts | 176° |
| 2026-04-21 17:40 | 28.43573 | -81.42416 | 6831 ft | 240 kts | 176° |
| 2026-04-21 17:40 | 28.41911 | -81.42471 | 6407 ft | 237 kts | 178° |
| 2026-04-21 17:41 | 28.40270 | -81.42561 | 6021 ft | 236 kts | 178° |
| 2026-04-21 17:41 | 28.38663 | -81.42650 | 5646 ft | 228 kts | 177° |
| 2026-04-21 17:41 | 28.37083 | -81.42747 | 5269 ft | 225 kts | 179° |
| 2026-04-21 17:41 | 28.35524 | -81.42837 | 4894 ft | 223 kts | 178° |
| 2026-04-21 17:42 | 28.33974 | -81.42935 | 4534 ft | 223 kts | 178° |
| 2026-04-21 17:42 | 28.32423 | -81.43036 | 4248 ft | 223 kts | 178° |
| 2026-04-21 17:42 | 28.30885 | -81.43140 | 3937 ft | 222 kts | 178° |
| 2026-04-21 17:42 | 28.29339 | -81.43248 | 3670 ft | 222 kts | 178° |
| 2026-04-21 17:43 | 28.27804 | -81.43357 | 3428 ft | 220 kts | 178° |
| 2026-04-21 17:43 | 28.26302 | -81.43458 | 3175 ft | 209 kts | 178° |
| 2026-04-21 17:43 | 28.24932 | -81.43334 | 2914 ft | 190 kts | 151° |
| 2026-04-21 17:43 | 28.23953 | -81.42426 | 2979 ft | 182 kts | 124° |
| 2026-04-21 17:44 | 28.23224 | -81.41255 | 2939 ft | 180 kts | 110° |
| 2026-04-21 17:44 | 28.23115 | -81.39889 | 2944 ft | 177 kts | 77° |
| 2026-04-21 17:44 | 28.23481 | -81.38546 | 2974 ft | 179 kts | 73° |
| 2026-04-21 17:44 | 28.23888 | -81.37218 | 2952 ft | 177 kts | 73° |
| 2026-04-21 17:45 | 28.24291 | -81.35896 | 2952 ft | 178 kts | 73° |
| 2026-04-21 17:45 | 28.24682 | -81.34561 | 2977 ft | 179 kts | 73° |
| 2026-04-21 17:45 | 28.25070 | -81.33223 | 2951 ft | 178 kts | 72° |
| 2026-04-21 17:45 | 28.25480 | -81.31913 | 2918 ft | 177 kts | 62° |
| 2026-04-21 17:46 | 28.26425 | -81.31026 | 2942 ft | 187 kts | 22° |
| 2026-04-21 17:46 | 28.27760 | -81.31023 | 2801 ft | 197 kts | 355° |
| 2026-04-21 17:46 | 28.29050 | -81.31315 | 2523 ft | 184 kts | 355° |
| 2026-04-21 17:46 | 28.30287 | -81.31580 | 2312 ft | 183 kts | 356° |
| 2026-04-21 17:47 | 28.31491 | -81.31832 | 2057 ft | 166 kts | 359° |
| 2026-04-21 17:47 | 28.32603 | -81.32012 | 1880 ft | 157 kts | 1° |
| 2026-04-21 17:47 | 28.33673 | -81.32115 | 1618 ft | 153 kts | 4° |
| 2026-04-21 17:47 | 28.34736 | -81.32133 | 1486 ft | 153 kts | 8° |
| 2026-04-21 17:48 | 28.35459 | -81.32142 | 1322 ft | 154 kts | 8° |
| 2026-04-21 17:48 | 28.36893 | -81.32139 | 1072 ft | 153 kts | 6° |
| 2026-04-21 17:48 | 28.37947 | -81.32172 | 841 ft | 152 kts | 6° |
| 2026-04-21 17:48 | 28.39011 | -81.32172 | 681 ft | 153 kts | 6° |
| 2026-04-21 17:49 | 28.40063 | -81.32199 | 492 ft | 150 kts | 8° |
| 2026-04-21 17:49 | 28.41093 | -81.32195 | 241 ft | 149 kts | 6° |
| 2026-04-21 17:49 | 28.42105 | -81.32199 | 115 ft | 134 kts | 0° |
| 2026-04-21 17:49 | 28.42842 | -81.32208 | 112 ft | 77 kts | 359° |
| 2026-04-21 17:50 | 28.43308 | -81.32212 | 110 ft | 67 kts | 359° |
| 2026-04-21 17:50 | 28.43730 | -81.32217 | 114 ft | 39 kts | 0° |
| 2026-04-21 17:50 | 28.43853 | -81.32222 | 116 ft | 10 kts | 350° |
| 2026-04-21 17:50 | 28.43887 | -81.32262 | 112 ft | 5 kts | 279° |
| 2026-04-21 17:51 | 28.43878 | -81.32301 | 114 ft | 9 kts | 246° |
| 2026-04-21 17:51 | 28.43847 | -81.32361 | 113 ft | 4 kts | 237° |
| 2026-04-21 17:51 | 28.43828 | -81.32393 | 112 ft | 10 kts | 235° |
| 2026-04-21 17:51 | 28.43796 | -81.32447 | 113 ft | 7 kts | 237° |
| 2026-04-21 17:52 | 28.43776 | -81.32486 | 109 ft | 5 kts | 239° |
| 2026-04-21 17:52 | 28.43739 | -81.32555 | 110 ft | 13 kts | 239° |
| 2026-04-21 17:52 | 28.43697 | -81.32636 | 111 ft | 11 kts | 239° |
| 2026-04-21 17:52 | 28.43671 | -81.32740 | 110 ft | 16 kts | 265° |
| 2026-04-21 17:53 | 28.43668 | -81.32842 | 112 ft | 5 kts | 269° |
| 2026-04-21 17:53 | 28.43668 | -81.32843 | 112 ft | 0 kts | 269° |
| 2026-04-21 17:53 | 28.43668 | -81.32860 | 111 ft | 1 kts | 270° |
| 2026-04-21 17:54 | 28.43659 | -81.32911 | 112 ft | 9 kts | 242° |
| 2026-04-21 17:54 | 28.43605 | -81.32931 | 112 ft | 12 kts | 181° |
| 2026-04-21 17:54 | 28.43533 | -81.32930 | 114 ft | 9 kts | 179° |
| 2026-04-21 17:54 | 28.43460 | -81.32928 | 114 ft | 10 kts | 179° |
| 2026-04-21 17:55 | 28.43364 | -81.32927 | 112 ft | 17 kts | 179° |
| 2026-04-21 17:55 | 28.43250 | -81.32926 | 114 ft | 16 kts | 179° |
| 2026-04-21 17:55 | 28.43151 | -81.32924 | 117 ft | 13 kts | 179° |
| 2026-04-21 17:55 | 28.43066 | -81.32924 | 116 ft | 12 kts | 180° |
| 2026-04-21 17:56 | 28.42979 | -81.32924 | 114 ft | 13 kts | 180° |
| 2026-04-21 17:56 | 28.42883 | -81.32924 | 111 ft | 14 kts | 180° |
| 2026-04-21 17:56 | 28.42787 | -81.32924 | 111 ft | 13 kts | 180° |
| 2026-04-21 17:56 | 28.42699 | -81.32923 | 111 ft | 12 kts | 177° |
| 2026-04-21 17:57 | 28.42616 | -81.32919 | 110 ft | 12 kts | 178° |
| 2026-04-21 17:57 | 28.42531 | -81.32917 | 108 ft | 13 kts | 179° |
| 2026-04-21 17:57 | 28.42442 | -81.32915 | 107 ft | 12 kts | 179° |
| 2026-04-21 17:57 | 28.42364 | -81.32916 | 108 ft | 10 kts | 180° |
| 2026-04-21 17:58 | 28.42300 | -81.32916 | 109 ft | 11 kts | 180° |
| 2026-04-21 17:58 | 28.42217 | -81.32916 | 110 ft | 12 kts | 180° |
| 2026-04-21 17:58 | 28.42147 | -81.32916 | 110 ft | 9 kts | 180° |
| 2026-04-21 17:58 | 28.42093 | -81.32916 | 110 ft | 6 kts | 180° |
| 2026-04-21 17:59 | 28.42057 | -81.32915 | 110 ft | 6 kts | 179° |
| 2026-04-21 17:59 | 28.41987 | -81.32913 | 112 ft | 14 kts | 178° |
| 2026-04-21 17:59 | 28.41907 | -81.32912 | 112 ft | 9 kts | 180° |
| 2026-04-21 17:59 | 28.41867 | -81.32912 | 115 ft | 2 kts | 180° |
| 2026-04-21 18:00 | 28.41823 | -81.32911 | 116 ft | 12 kts | 179° |
| 2026-04-21 18:00 | 28.41711 | -81.32909 | 115 ft | 17 kts | 179° |
| 2026-04-21 18:00 | 28.41604 | -81.32907 | 114 ft | 12 kts | 179° |
| 2026-04-21 18:00 | 28.41540 | -81.32915 | 114 ft | 9 kts | 202° |
| 2026-04-21 18:01 | 28.41477 | -81.32971 | 114 ft | 8 kts | 223° |
| 2026-04-21 18:01 | 28.41436 | -81.33021 | 112 ft | 12 kts | 227° |
| 2026-04-21 18:01 | 28.41407 | -81.33094 | 110 ft | 10 kts | 263° |
| 2026-04-21 18:01 | 28.41405 | -81.33167 | 110 ft | 8 kts | 269° |
| 2026-04-21 18:02 | 28.41404 | -81.33205 | 112 ft | 6 kts | 269° |
| 2026-04-21 18:02 | 28.41404 | -81.33222 | 112 ft | 0 kts | 270° |
| 2026-04-21 18:02 | 28.41404 | -81.33245 | 111 ft | 9 kts | 270° |
| 2026-04-21 18:02 | 28.41405 | -81.33339 | 111 ft | 11 kts | 269° |
| 2026-04-21 18:03 | 28.41411 | -81.33396 | 108 ft | 3 kts | 297° |
| 2026-04-21 18:03 | 28.41411 | -81.33423 | 110 ft | 7 kts | 260° |
| 2026-04-21 18:03 | 28.41403 | -81.33520 | 109 ft | 14 kts | 267° |
| 2026-04-21 18:03 | 28.41401 | -81.33620 | 108 ft | 11 kts | 268° |
| 2026-04-21 18:04 | 28.41409 | -81.33675 | 106 ft | 3 kts | 306° |
| 2026-04-21 18:04 | 28.41431 | -81.33687 | 108 ft | 2 kts | 342° |
| 2026-04-21 18:04 | 28.41445 | -81.33690 | 108 ft | 3 kts | 350° |
| 2026-04-21 18:04 | 28.41464 | -81.33692 | 108 ft | 3 kts | 358° |
| 2026-04-21 18:05 | 28.41473 | -81.33692 | 108 ft | 1 kts | 359° |
| 2026-04-21 18:05 | 28.41474 | -81.33692 | 108 ft | 0 kts | 359° |